createdAt,value
2023-01-12T00:05:43.759Z,14.73
2023-01-12T00:11:47.253Z,10.70
2023-01-12T00:17:52.085Z,7.18
2023-01-12T00:23:55.634Z,8.32
2023-01-12T00:29:59.062Z,10.50
2023-01-12T00:36:05.734Z,10.25
2023-01-12T00:42:26.735Z,5.05
2023-01-12T00:48:30.987Z,8.63
2023-01-12T00:54:36.100Z,8.77
2023-01-12T01:00:39.511Z,7.80
2023-01-12T01:06:42.885Z,5.03
2023-01-12T01:12:47.758Z,5.07
2023-01-12T01:18:51.173Z,7.18
2023-01-12T01:24:54.636Z,7.97
2023-01-12T01:31:05.992Z,7.15
2023-01-12T01:37:09.726Z,5.10
2023-01-12T01:43:15.574Z,7.88
2023-01-12T01:49:29.995Z,6.93
2023-01-12T01:55:34.803Z,8.52
2023-01-12T02:01:38.699Z,5.90
2023-01-12T02:07:44.751Z,8.65
2023-01-12T02:14:05.712Z,13.20
2023-01-12T02:20:21.445Z,7.45
2023-01-12T02:26:39.389Z,4.22
2023-01-12T02:32:48.363Z,7.32
2023-01-12T02:38:53.467Z,6.03
2023-01-12T02:45:00.530Z,6.45
2023-01-12T02:51:07.384Z,6.50
2023-01-12T02:57:11.501Z,3.80
2023-01-12T03:03:17.286Z,5.60
2023-01-12T03:09:22.059Z,4.13
2023-01-12T03:15:28.889Z,4.95
2023-01-12T03:21:34.336Z,5.65
2023-01-12T03:27:40.735Z,5.15
2023-01-12T03:33:45.389Z,4.45
2023-01-12T03:39:51.731Z,4.80
2023-01-12T03:45:58.717Z,5.60
2023-01-12T03:52:03.668Z,5.93
2023-01-12T03:58:07.517Z,4.03
2023-01-12T04:04:12.261Z,4.05
2023-01-12T04:10:15.607Z,5.82
2023-01-12T04:16:19.079Z,3.80
2023-01-12T04:22:41.630Z,2.63
2023-01-12T04:28:45.007Z,4.75
2023-01-12T04:34:48.723Z,3.83
2023-01-12T04:40:56.531Z,4.00
2023-01-12T04:46:59.917Z,2.80
2023-01-12T04:53:03.680Z,4.32
2023-01-12T04:59:10.690Z,3.55
2023-01-12T05:05:14.132Z,4.60
2023-01-12T05:11:17.582Z,4.43
2023-01-12T05:17:22.594Z,3.10
2023-01-12T05:23:26.189Z,4.65
2023-01-12T05:29:29.768Z,2.00
2023-01-12T05:35:34.915Z,4.00
2023-01-12T05:41:58.307Z,2.63
2023-01-12T05:48:02.205Z,1.65
2023-01-12T05:54:07.188Z,2.53
2023-01-12T06:00:11.310Z,2.80
2023-01-12T06:06:14.716Z,4.10
2023-01-12T06:12:37.008Z,3.38
2023-01-12T06:18:41.443Z,3.33
2023-01-12T06:24:48.061Z,4.75
2023-01-12T06:30:58.323Z,4.53
2023-01-12T06:37:02.671Z,4.32
2023-01-12T06:43:06.092Z,2.75
2023-01-12T06:49:11.049Z,3.08
2023-01-12T06:55:14.507Z,3.90
2023-01-12T07:01:18.000Z,4.37
2023-01-12T07:07:22.807Z,5.22
2023-01-12T07:13:26.684Z,4.03
2023-01-12T07:19:30.100Z,5.20
2023-01-12T07:25:34.870Z,4.13
2023-01-12T07:31:38.267Z,4.30
2023-01-12T07:37:41.631Z,5.53
2023-01-12T07:43:46.391Z,5.65
2023-01-12T07:49:50.964Z,4.55
2023-01-12T07:55:54.453Z,5.22
2023-01-12T08:01:59.570Z,1.77
2023-01-12T08:08:03.760Z,3.35
2023-01-12T08:14:07.520Z,1.83
2023-01-12T08:20:15.079Z,3.80
2023-01-12T08:26:23.800Z,6.40
2023-01-12T08:32:29.019Z,3.47
2023-01-12T08:38:33.802Z,3.03
2023-01-12T08:44:37.212Z,3.72
2023-01-12T08:50:40.579Z,2.85
2023-01-12T08:56:45.463Z,2.25
2023-01-12T09:02:48.944Z,3.28
2023-01-12T09:08:55.097Z,1.25
2023-01-12T09:15:00.292Z,3.45
2023-01-12T09:21:07.749Z,2.70
2023-01-12T09:27:12.164Z,3.22
2023-01-12T09:33:16.914Z,2.25
2023-01-12T09:39:27.661Z,2.13
2023-01-12T09:45:49.072Z,5.18
2023-01-12T09:51:58.177Z,4.22
2023-01-12T09:58:22.526Z,1.70
2023-01-12T10:04:26.230Z,3.20
2023-01-12T10:10:31.053Z,4.43
2023-01-12T10:16:38.057Z,5.15
2023-01-12T10:22:42.570Z,1.88
2023-01-12T10:28:48.198Z,4.97
2023-01-12T10:34:52.427Z,5.20
2023-01-12T10:41:13.538Z,6.40
2023-01-12T10:47:19.181Z,2.53
2023-01-12T10:53:26.593Z,0.70
2023-01-12T10:59:31.582Z,4.45
2023-01-12T11:05:38.541Z,3.25
2023-01-12T11:11:42.341Z,1.77
2023-01-12T11:17:51.836Z,3.70
2023-01-12T11:23:59.487Z,2.22
2023-01-12T11:30:05.937Z,1.40
2023-01-12T11:36:11.048Z,0.90
2023-01-12T11:42:38.045Z,1.27
2023-01-12T11:48:46.260Z,4.72
2023-01-12T11:54:50.192Z,4.85
2023-01-12T12:01:00.087Z,1.88
2023-01-12T12:07:08.690Z,2.75
2023-01-12T12:13:27.055Z,3.58
2023-01-12T12:19:37.198Z,4.88
2023-01-12T12:25:45.224Z,2.63
2023-01-12T12:31:54.624Z,2.65
2023-01-12T12:38:04.182Z,3.40
2023-01-12T12:44:34.066Z,3.08
2023-01-12T12:50:40.292Z,2.78
2023-01-12T12:56:45.507Z,2.38
2023-01-12T13:02:55.979Z,2.72
2023-01-12T13:08:59.965Z,1.15
2023-01-12T13:15:29.426Z,2.00
2023-01-12T13:21:33.719Z,2.10
2023-01-12T13:27:51.373Z,1.38
2023-01-12T13:34:09.580Z,2.08
2023-01-12T13:40:18.940Z,2.63
2023-01-12T13:46:23.609Z,1.45
2023-01-12T13:52:30.207Z,2.00
2023-01-12T13:58:41.481Z,1.48
2023-01-12T14:05:08.819Z,0.80
2023-01-12T14:11:19.907Z,1.65
2023-01-12T14:17:45.302Z,3.58
2023-01-12T14:23:48.781Z,1.20
2023-01-12T14:29:52.208Z,1.10
2023-01-12T14:35:58.775Z,0.95
2023-01-12T14:42:19.936Z,1.23
2023-01-12T14:48:25.208Z,2.20
2023-01-12T14:54:30.473Z,2.15
2023-01-12T15:00:35.216Z,1.70
2023-01-12T15:06:41.324Z,1.45
2023-01-12T15:12:48.339Z,2.22
2023-01-12T15:19:09.832Z,1.75
2023-01-12T15:25:31.523Z,1.63
2023-01-12T15:31:37.712Z,1.17
2023-01-12T15:37:41.461Z,2.83
2023-01-12T15:43:44.863Z,2.33
2023-01-12T15:49:51.244Z,1.20
2023-01-12T15:55:54.688Z,1.13
2023-01-12T16:01:58.162Z,1.50
2023-01-12T16:08:02.995Z,2.33
2023-01-12T16:14:06.375Z,3.95
2023-01-12T16:20:10.511Z,2.80
2023-01-12T16:26:15.267Z,3.70
2023-01-12T16:32:19.068Z,2.47
2023-01-12T16:38:22.639Z,1.40
2023-01-12T16:44:27.433Z,2.53
2023-01-12T16:50:30.829Z,1.50
2023-01-12T16:56:34.235Z,1.73
2023-01-12T17:02:39.133Z,2.75
2023-01-12T17:08:42.973Z,187.30
2023-01-12T17:14:46.764Z,405.27
2023-01-12T17:21:00.475Z,193.02
2023-01-12T17:27:03.965Z,5.05
2023-01-12T17:33:07.388Z,6.00
2023-01-12T17:39:12.608Z,2.10
2023-01-12T17:45:16.139Z,1.98
2023-01-12T17:51:19.591Z,2.40
2023-01-12T17:57:24.570Z,2.88
2023-01-12T18:03:28.003Z,46.78
2023-01-12T18:09:32.337Z,54.92
2023-01-12T18:15:37.186Z,26.92
2023-01-12T18:21:40.618Z,47.13
2023-01-12T18:27:45.485Z,52.30
2023-01-12T18:33:51.002Z,24.25
2023-01-12T18:39:54.526Z,36.95
2023-01-12T18:45:58.116Z,32.67
2023-01-12T18:52:35.320Z,37.05
2023-01-12T18:58:40.051Z,31.20
2023-01-12T19:05:00.391Z,16.73
2023-01-12T19:11:10.134Z,48.80
2023-01-12T19:17:29.803Z,11.68
2023-01-12T19:23:50.997Z,19.30
2023-01-12T19:29:55.793Z,19.42
2023-01-12T19:35:59.708Z,12.07
2023-01-12T19:42:20.804Z,15.73
2023-01-12T19:48:26.760Z,29.52
2023-01-12T19:54:31.199Z,7.72
2023-01-12T20:00:34.568Z,7.40
2023-01-12T20:06:39.367Z,10.95
2023-01-12T20:12:42.996Z,7.72
2023-01-12T20:18:46.431Z,5.65
2023-01-12T20:24:51.205Z,4.32
2023-01-12T20:30:54.674Z,3.33
2023-01-12T20:36:58.293Z,4.30
2023-01-12T20:43:03.126Z,4.15
2023-01-12T20:49:06.577Z,5.53
2023-01-12T20:55:10.388Z,9.15
2023-01-12T21:01:16.050Z,6.25
2023-01-12T21:07:21.740Z,3.90
2023-01-12T21:13:25.512Z,7.13
2023-01-12T21:19:30.492Z,5.80
2023-01-12T21:25:33.984Z,6.55
2023-01-12T21:31:37.486Z,4.97
2023-01-12T21:37:42.272Z,8.57
2023-01-12T21:43:49.140Z,7.93
2023-01-12T21:49:52.543Z,8.27
2023-01-12T21:55:58.557Z,9.45
2023-01-12T22:02:02.083Z,7.22
2023-01-12T22:08:05.622Z,8.30
2023-01-12T22:14:10.453Z,8.85
2023-01-12T22:20:14.444Z,10.00
2023-01-12T22:26:18.512Z,7.40
2023-01-12T22:32:23.339Z,13.05
2023-01-12T22:38:26.726Z,10.35
2023-01-12T22:44:30.122Z,11.43
2023-01-12T22:50:34.874Z,8.98
2023-01-12T22:56:38.313Z,9.63
2023-01-12T23:02:59.490Z,11.85
2023-01-12T23:09:04.377Z,11.55
2023-01-12T23:15:08.472Z,11.25
2023-01-12T23:21:14.177Z,8.57
2023-01-12T23:27:18.996Z,13.45
2023-01-12T23:33:22.452Z,16.60
2023-01-12T23:39:25.820Z,9.65
2023-01-12T23:45:30.602Z,15.93
2023-01-12T23:51:36.261Z,18.00
2023-01-12T23:57:39.635Z,15.95
